createdAt,value
2023-05-24T00:02:33.961Z,7.80
2023-05-24T00:07:38.033Z,7.33
2023-05-24T00:12:41.903Z,8.10
2023-05-24T00:17:47.468Z,6.67
2023-05-24T00:22:51.795Z,7.60
2023-05-24T00:27:55.352Z,8.10
2023-05-24T00:33:00.555Z,8.77
2023-05-24T00:38:04.118Z,7.90
2023-05-24T00:43:07.570Z,7.63
2023-05-24T00:48:13.605Z,7.93
2023-05-24T00:53:17.516Z,7.57
2023-05-24T00:58:21.136Z,7.30
2023-05-24T01:03:27.180Z,7.37
2023-05-24T01:08:44.641Z,7.70
2023-05-24T01:14:00.138Z,8.60
2023-05-24T01:19:22.620Z,9.03
2023-05-24T01:24:33.993Z,8.27
2023-05-24T01:29:39.570Z,7.27
2023-05-24T01:34:43.065Z,7.83
2023-05-24T01:39:47.084Z,7.00
2023-05-24T01:45:00.710Z,7.57
2023-05-24T01:50:12.961Z,7.97
2023-05-24T01:55:19.073Z,8.17
2023-05-24T02:00:24.630Z,7.27
2023-05-24T02:05:30.244Z,7.80
2023-05-24T02:10:33.820Z,7.03
2023-05-24T02:15:38.708Z,7.27
2023-05-24T02:20:43.339Z,7.33
2023-05-24T02:25:47.191Z,7.37
2023-05-24T02:30:52.069Z,8.07
2023-05-24T02:35:55.848Z,7.00
2023-05-24T02:40:59.646Z,8.13
2023-05-24T02:46:05.077Z,9.57
2023-05-24T02:51:08.963Z,8.87
2023-05-24T02:56:13.838Z,9.43
2023-05-24T03:01:19.942Z,8.60
2023-05-24T03:06:24.588Z,8.53
2023-05-24T03:11:28.465Z,8.33
2023-05-24T03:16:35.332Z,7.67
2023-05-24T03:21:40.599Z,7.37
2023-05-24T03:26:44.102Z,8.13
2023-05-24T03:31:49.236Z,7.70
2023-05-24T03:36:53.008Z,7.73
2023-05-24T03:41:56.872Z,7.70
2023-05-24T03:47:01.806Z,10.00
2023-05-24T03:52:05.600Z,10.87
2023-05-24T03:57:09.437Z,10.80
2023-05-24T04:02:14.754Z,9.73
2023-05-24T04:07:18.364Z,10.73
2023-05-24T04:12:22.066Z,10.40
2023-05-24T04:17:27.551Z,9.93
2023-05-24T04:22:31.917Z,9.67
2023-05-24T04:27:36.428Z,10.10
2023-05-24T04:32:41.746Z,8.90
2023-05-24T04:37:45.313Z,9.53
2023-05-24T04:42:48.910Z,8.93
2023-05-24T04:47:53.763Z,9.30
2023-05-24T04:52:57.806Z,8.70
2023-05-24T04:58:01.337Z,9.27
2023-05-24T05:03:07.036Z,9.20
2023-05-24T05:08:10.825Z,7.40
2023-05-24T05:13:14.305Z,6.53
2023-05-24T05:18:19.174Z,5.85
2023-05-24T05:23:22.811Z,5.13
2023-05-24T05:28:26.253Z,6.03
2023-05-24T05:33:32.566Z,4.78
2023-05-24T05:38:36.400Z,4.40
2023-05-24T05:43:40.908Z,3.95
2023-05-24T05:48:46.737Z,4.00
2023-05-24T05:53:50.124Z,4.50
2023-05-24T05:58:53.543Z,4.50
2023-05-24T06:03:58.535Z,4.65
2023-05-24T06:09:02.079Z,4.20
2023-05-24T06:14:05.529Z,3.88
2023-05-24T06:19:10.756Z,4.07
2023-05-24T06:24:15.015Z,4.57
2023-05-24T06:29:20.267Z,4.10
2023-05-24T06:34:25.216Z,3.83
2023-05-24T06:39:28.966Z,4.15
2023-05-24T06:44:34.630Z,3.63
2023-05-24T06:49:39.640Z,4.20
2023-05-24T06:54:43.826Z,4.05
2023-05-24T06:59:47.610Z,3.83
2023-05-24T07:04:52.860Z,3.95
2023-05-24T07:09:56.684Z,3.90
2023-05-24T07:15:00.562Z,3.75
2023-05-24T07:20:10.617Z,3.40
2023-05-24T07:25:14.625Z,3.33
2023-05-24T07:30:31.075Z,3.88
2023-05-24T07:35:38.636Z,3.60
2023-05-24T07:40:42.666Z,3.83
2023-05-24T07:45:46.609Z,3.33
2023-05-24T07:50:52.825Z,3.40
2023-05-24T07:55:56.780Z,4.03
2023-05-24T08:01:00.844Z,3.60
2023-05-24T08:06:06.451Z,3.20
2023-05-24T08:11:09.990Z,3.38
2023-05-24T08:16:13.502Z,2.80
2023-05-24T08:21:18.682Z,3.30
2023-05-24T08:26:22.372Z,3.03
2023-05-24T08:31:26.328Z,3.40
2023-05-24T08:36:32.984Z,3.05
2023-05-24T08:41:37.789Z,3.33
2023-05-24T08:46:41.721Z,3.25
2023-05-24T08:51:47.380Z,2.85
2023-05-24T08:56:52.684Z,3.28
2023-05-24T09:01:56.656Z,3.22
2023-05-24T09:07:01.587Z,3.05
2023-05-24T09:12:08.711Z,3.25
2023-05-24T09:17:15.842Z,2.50
2023-05-24T09:22:23.683Z,2.90
2023-05-24T09:27:27.459Z,2.85
2023-05-24T09:32:31.906Z,2.75
2023-05-24T09:37:39.084Z,3.30
2023-05-24T09:42:42.772Z,3.00
2023-05-24T09:47:46.971Z,2.90
2023-05-24T09:52:54.401Z,3.03
2023-05-24T09:58:04.942Z,2.97
2023-05-24T10:03:11.142Z,3.20
2023-05-24T10:08:18.508Z,2.90
2023-05-24T10:13:24.239Z,3.20
2023-05-24T10:18:27.748Z,2.75
2023-05-24T10:23:33.556Z,2.83
2023-05-24T10:28:41.521Z,3.03
2023-05-24T10:33:48.626Z,3.05
2023-05-24T10:38:54.251Z,3.40
2023-05-24T10:44:09.198Z,3.80
2023-05-24T10:49:15.197Z,3.13
2023-05-24T10:54:21.797Z,3.47
2023-05-24T10:59:38.000Z,3.83
2023-05-24T11:04:43.490Z,4.25
2023-05-24T11:09:53.284Z,4.13
2023-05-24T11:14:57.385Z,4.20
2023-05-24T11:20:05.327Z,3.60
2023-05-24T11:25:12.945Z,3.42
2023-05-24T11:30:17.326Z,3.00
2023-05-24T11:35:23.230Z,3.88
2023-05-24T11:40:28.407Z,3.70
2023-05-24T11:45:32.015Z,4.10
2023-05-24T11:50:48.758Z,4.28
2023-05-24T11:55:55.976Z,3.85
2023-05-24T12:00:59.626Z,4.03
2023-05-24T12:06:04.070Z,3.58
2023-05-24T12:11:09.044Z,3.00
2023-05-24T12:16:14.585Z,2.88
2023-05-24T12:21:18.709Z,3.10
2023-05-24T12:26:24.057Z,3.40
2023-05-24T12:31:28.477Z,3.20
2023-05-24T12:36:32.536Z,3.17
2023-05-24T12:41:37.698Z,3.17
2023-05-24T12:46:41.373Z,3.78
2023-05-24T12:51:46.161Z,3.30
2023-05-24T12:56:55.875Z,4.25
2023-05-24T13:02:00.807Z,3.53
2023-05-24T13:07:04.754Z,4.07
2023-05-24T13:12:11.771Z,5.05
2023-05-24T13:17:16.371Z,4.85
2023-05-24T13:22:20.146Z,4.70
2023-05-24T13:27:25.154Z,4.50
2023-05-24T13:32:29.333Z,4.47
2023-05-24T13:37:33.093Z,3.63
2023-05-24T13:42:38.100Z,3.30
2023-05-24T13:47:42.064Z,3.55
2023-05-24T13:52:45.886Z,3.70
2023-05-24T13:57:52.309Z,3.45
2023-05-24T14:02:57.003Z,3.70
2023-05-24T14:08:06.492Z,4.50
2023-05-24T14:13:34.277Z,3.72
2023-05-24T14:18:36.064Z,3.88
2023-05-24T14:23:40.243Z,3.60
2023-05-24T14:28:45.108Z,3.88
2023-05-24T14:33:48.865Z,4.32
2023-05-24T14:38:52.710Z,4.60
2023-05-24T14:43:57.598Z,4.95
2023-05-24T14:49:02.582Z,3.92
2023-05-24T14:54:06.175Z,4.00
2023-05-24T14:59:11.236Z,4.00
2023-05-24T15:04:14.649Z,4.32
2023-05-24T15:09:18.236Z,3.88
2023-05-24T15:14:23.512Z,3.80
2023-05-24T15:19:27.173Z,4.00
2023-05-24T15:24:30.623Z,4.72
2023-05-24T15:29:35.452Z,3.40
2023-05-24T15:34:39.194Z,3.55
2023-05-24T15:39:42.985Z,3.65
2023-05-24T15:44:47.826Z,4.05
2023-05-24T15:49:51.635Z,3.60
2023-05-24T15:54:55.363Z,4.20
2023-05-24T16:00:01.360Z,4.03
2023-05-24T16:05:05.218Z,4.22
2023-05-24T16:10:09.565Z,3.33
2023-05-24T16:15:14.890Z,3.95
2023-05-24T16:20:18.691Z,4.05
2023-05-24T16:25:22.227Z,3.90
2023-05-24T16:30:27.131Z,3.47
2023-05-24T16:35:31.243Z,3.45
2023-05-24T16:40:34.719Z,3.75
2023-05-24T16:45:39.623Z,3.83
2023-05-24T16:50:43.717Z,3.75
2023-05-24T16:55:50.810Z,3.38
2023-05-24T17:00:56.305Z,3.75
2023-05-24T17:06:04.085Z,3.78
2023-05-24T17:11:08.377Z,3.72
2023-05-24T17:16:14.160Z,5.30
2023-05-24T17:21:17.719Z,4.18
2023-05-24T17:26:21.502Z,3.80
2023-05-24T17:31:26.384Z,5.32
2023-05-24T17:36:33.606Z,3.60
2023-05-24T17:41:37.617Z,3.63
2023-05-24T17:46:42.679Z,3.95
2023-05-24T17:51:46.220Z,4.18
2023-05-24T17:56:49.788Z,3.67
2023-05-24T18:01:54.747Z,3.30
2023-05-24T18:06:58.297Z,4.30
2023-05-24T18:12:01.941Z,3.63
2023-05-24T18:17:07.026Z,3.65
2023-05-24T18:22:10.841Z,4.28
2023-05-24T18:27:14.342Z,3.65
2023-05-24T18:32:19.603Z,4.03
2023-05-24T18:37:23.561Z,3.65
2023-05-24T18:42:27.132Z,4.03
2023-05-24T18:47:32.625Z,3.55
2023-05-24T18:52:36.587Z,3.85
2023-05-24T18:57:40.279Z,4.03
2023-05-24T19:02:46.830Z,3.70
2023-05-24T19:07:51.148Z,3.83
2023-05-24T19:12:54.605Z,4.15
2023-05-24T19:18:00.083Z,4.00
2023-05-24T19:23:03.697Z,3.38
2023-05-24T19:28:07.271Z,3.85
2023-05-24T19:33:12.240Z,3.83
2023-05-24T19:38:17.864Z,3.58
2023-05-24T19:43:21.849Z,3.50
2023-05-24T19:48:27.154Z,3.47
2023-05-24T19:53:30.999Z,3.83
2023-05-24T19:58:34.774Z,3.55
2023-05-24T20:03:39.782Z,3.83
2023-05-24T20:08:43.417Z,4.30
2023-05-24T20:13:46.893Z,3.43
2023-05-24T20:18:52.206Z,3.80
2023-05-24T20:23:58.826Z,3.40
2023-05-24T20:29:03.028Z,4.00
2023-05-24T20:34:07.953Z,3.50
2023-05-24T20:39:11.877Z,3.67
2023-05-24T20:44:15.513Z,3.80
2023-05-24T20:49:20.661Z,3.47
2023-05-24T20:54:24.140Z,3.70
2023-05-24T20:59:28.099Z,3.50
2023-05-24T21:04:32.956Z,3.50
2023-05-24T21:09:36.365Z,3.43
2023-05-24T21:14:40.129Z,3.23
2023-05-24T21:19:45.392Z,3.97
2023-05-24T21:24:49.177Z,3.70
2023-05-24T21:29:52.695Z,4.17
2023-05-24T21:34:57.898Z,4.23
2023-05-24T21:40:01.473Z,3.67
2023-05-24T21:45:08.191Z,4.20
2023-05-24T21:50:13.706Z,3.73
2023-05-24T21:55:17.583Z,3.97
2023-05-24T22:00:21.915Z,3.40
2023-05-24T22:05:27.856Z,4.17
2023-05-24T22:10:32.109Z,3.83
2023-05-24T22:15:35.570Z,3.30
2023-05-24T22:20:40.552Z,3.80
2023-05-24T22:25:44.881Z,3.60
2023-05-24T22:30:48.761Z,3.63
2023-05-24T22:35:53.953Z,4.00
2023-05-24T22:40:57.779Z,3.70
2023-05-24T22:46:01.297Z,3.80
2023-05-24T22:51:06.828Z,3.80
2023-05-24T22:56:10.728Z,4.30
2023-05-24T23:01:14.536Z,5.37
2023-05-24T23:06:21.214Z,5.17
2023-05-24T23:11:26.428Z,5.07
2023-05-24T23:16:31.689Z,5.03
2023-05-24T23:21:37.229Z,5.03
2023-05-24T23:26:40.979Z,5.93
2023-05-24T23:31:44.764Z,6.03
2023-05-24T23:36:49.913Z,5.40
2023-05-24T23:41:53.717Z,4.83
2023-05-24T23:46:58.067Z,5.27
2023-05-24T23:52:03.006Z,4.50
2023-05-24T23:57:10.050Z,5.30
